createdAt,value
2023-09-06T00:00:46.821Z,5.40
2023-09-06T00:03:14.690Z,6.63
2023-09-06T00:05:44.974Z,6.13
2023-09-06T00:08:17.573Z,5.53
2023-09-06T00:10:46.575Z,5.87
2023-09-06T00:13:14.730Z,5.57
2023-09-06T00:15:42.062Z,5.63
2023-09-06T00:18:09.336Z,5.73
2023-09-06T00:20:38.133Z,6.20
2023-09-06T00:23:13.721Z,5.60
2023-09-06T00:25:40.856Z,6.17
2023-09-06T00:28:08.337Z,5.60
2023-09-06T00:30:36.842Z,5.90
2023-09-06T00:33:08.367Z,5.70
2023-09-06T00:35:35.854Z,5.30
2023-09-06T00:38:03.295Z,6.13
2023-09-06T00:40:31.405Z,6.47
2023-09-06T00:43:02.664Z,5.63
2023-09-06T00:45:52.497Z,6.10
2023-09-06T00:48:23.220Z,5.43
2023-09-06T00:50:52.518Z,5.83
2023-09-06T00:53:21.630Z,5.97
2023-09-06T00:55:50.227Z,6.17
2023-09-06T00:58:19.104Z,5.60
2023-09-06T01:00:48.074Z,5.77
2023-09-06T01:03:15.941Z,6.20
2023-09-06T01:05:47.297Z,5.57
2023-09-06T01:08:22.153Z,7.47
2023-09-06T01:10:51.708Z,6.67
2023-09-06T01:13:19.146Z,6.80
2023-09-06T01:15:47.844Z,7.17
2023-09-06T01:18:16.150Z,8.33
2023-09-06T01:20:54.172Z,8.63
2023-09-06T01:23:40.322Z,8.43
2023-09-06T01:26:08.310Z,8.30
2023-09-06T01:28:35.973Z,8.47
2023-09-06T01:31:03.952Z,8.90
2023-09-06T01:33:32.169Z,9.97
2023-09-06T01:35:59.956Z,10.77
2023-09-06T01:38:27.383Z,11.87
2023-09-06T01:40:55.217Z,11.03
2023-09-06T01:43:22.273Z,10.83
2023-09-06T01:45:53.098Z,11.23
2023-09-06T01:48:20.681Z,11.23
2023-09-06T01:50:48.690Z,10.80
2023-09-06T01:53:16.081Z,11.27
2023-09-06T01:55:44.600Z,11.70
2023-09-06T01:58:12.817Z,12.40
2023-09-06T02:00:40.083Z,12.77
2023-09-06T02:03:08.762Z,14.23
2023-09-06T02:05:41.918Z,15.90
2023-09-06T02:08:09.321Z,13.80
2023-09-06T02:10:36.425Z,13.07
2023-09-06T02:13:03.611Z,13.50
2023-09-06T02:15:31.211Z,13.23
2023-09-06T02:17:58.726Z,14.30
2023-09-06T02:20:26.920Z,13.83
2023-09-06T02:22:58.811Z,14.07
2023-09-06T02:25:30.596Z,13.63
2023-09-06T02:28:08.726Z,14.17
2023-09-06T02:30:39.560Z,12.90
2023-09-06T02:33:09.118Z,12.60
2023-09-06T02:35:41.944Z,13.23
2023-09-06T02:38:10.134Z,11.90
2023-09-06T02:40:38.089Z,12.40
2023-09-06T02:43:06.150Z,13.47
2023-09-06T02:45:39.651Z,13.23
2023-09-06T02:48:08.354Z,12.60
2023-09-06T02:50:36.493Z,13.23
2023-09-06T02:53:04.770Z,13.27
2023-09-06T02:55:36.597Z,13.47
2023-09-06T02:58:05.986Z,14.13
2023-09-06T03:00:37.480Z,14.70
2023-09-06T03:03:08.224Z,15.53
2023-09-06T03:05:45.365Z,15.57
2023-09-06T03:08:14.126Z,15.17
2023-09-06T03:10:42.296Z,15.40
2023-09-06T03:13:11.974Z,14.50
2023-09-06T03:15:39.159Z,15.03
2023-09-06T03:18:06.857Z,14.80
2023-09-06T03:20:35.065Z,13.87
2023-09-06T03:23:22.711Z,14.30
2023-09-06T03:25:53.199Z,13.40
2023-09-06T03:28:22.062Z,13.97
2023-09-06T03:30:50.030Z,14.30
2023-09-06T03:33:19.123Z,13.53
2023-09-06T03:35:50.605Z,13.83
2023-09-06T03:38:19.321Z,14.27
2023-09-06T03:40:46.894Z,14.50
2023-09-06T03:43:17.019Z,14.53
2023-09-06T03:45:45.458Z,13.90
2023-09-06T03:48:14.556Z,13.97
2023-09-06T03:50:42.128Z,13.33
2023-09-06T03:53:09.383Z,12.70
2023-09-06T03:55:39.506Z,12.33
2023-09-06T03:58:08.683Z,11.90
2023-09-06T04:00:40.680Z,14.50
2023-09-06T04:03:09.377Z,13.77
2023-09-06T04:05:36.704Z,13.80
2023-09-06T04:08:10.924Z,15.00
2023-09-06T04:10:39.864Z,14.97
2023-09-06T04:13:09.132Z,14.43
2023-09-06T04:15:37.110Z,15.90
2023-09-06T04:18:06.421Z,16.53
2023-09-06T04:20:37.981Z,16.47
2023-09-06T04:23:06.920Z,14.77
2023-09-06T04:25:42.596Z,16.73
2023-09-06T04:28:11.132Z,16.20
2023-09-06T04:30:40.094Z,14.73
2023-09-06T04:33:07.222Z,16.63
2023-09-06T04:35:45.778Z,14.10
2023-09-06T04:38:15.493Z,15.77
2023-09-06T04:40:46.481Z,16.53
2023-09-06T04:43:15.012Z,16.30
2023-09-06T04:45:42.187Z,15.47
2023-09-06T04:48:11.173Z,15.90
2023-09-06T04:50:39.518Z,15.53
2023-09-06T04:53:09.687Z,16.70
2023-09-06T04:55:37.922Z,16.37
2023-09-06T04:58:09.862Z,17.53
2023-09-06T05:00:42.801Z,15.50
2023-09-06T05:03:12.891Z,16.90
2023-09-06T05:05:42.549Z,15.93
2023-09-06T05:08:11.001Z,15.53
2023-09-06T05:10:38.941Z,16.53
2023-09-06T05:13:09.531Z,15.57
2023-09-06T05:15:38.248Z,15.43
2023-09-06T05:18:07.496Z,15.47
2023-09-06T05:20:36.572Z,15.97
2023-09-06T05:23:10.410Z,16.07
2023-09-06T05:25:38.863Z,16.90
2023-09-06T05:28:10.162Z,16.80
2023-09-06T05:30:45.638Z,14.80
2023-09-06T05:33:14.882Z,15.67
2023-09-06T05:35:42.507Z,15.67
2023-09-06T05:38:12.894Z,16.17
2023-09-06T05:40:44.990Z,16.33
2023-09-06T05:43:12.382Z,14.23
2023-09-06T05:45:39.565Z,15.70
2023-09-06T05:48:10.696Z,15.87
2023-09-06T05:50:39.352Z,16.87
2023-09-06T05:53:06.532Z,15.30
2023-09-06T05:55:34.054Z,14.60
2023-09-06T05:58:01.173Z,16.87
2023-09-06T06:00:30.281Z,17.50
2023-09-06T06:02:59.900Z,18.23
2023-09-06T06:05:27.210Z,17.53
2023-09-06T06:07:54.356Z,23.00
2023-09-06T06:10:21.445Z,24.60
2023-09-06T06:12:48.639Z,27.13
2023-09-06T06:15:15.804Z,30.17
2023-09-06T06:17:43.752Z,22.87
2023-09-06T06:20:12.851Z,18.17
2023-09-06T06:22:41.212Z,15.15
2023-09-06T06:25:10.096Z,15.93
2023-09-06T06:27:39.153Z,14.45
2023-09-06T06:30:07.774Z,14.25
2023-09-06T06:32:35.760Z,13.95
2023-09-06T06:35:13.336Z,13.73
2023-09-06T06:37:40.833Z,14.63
2023-09-06T06:40:08.598Z,14.27
2023-09-06T06:42:35.696Z,13.13
2023-09-06T06:45:04.766Z,14.40
2023-09-06T06:47:31.760Z,14.45
2023-09-06T06:50:04.355Z,14.98
2023-09-06T06:52:37.951Z,15.57
2023-09-06T06:55:05.654Z,15.18
2023-09-06T06:57:34.554Z,16.30
2023-09-06T07:00:06.867Z,15.70
2023-09-06T07:02:36.223Z,15.57
2023-09-06T07:05:03.781Z,16.48
2023-09-06T07:07:30.993Z,15.48
2023-09-06T07:09:58.039Z,16.60
2023-09-06T07:12:25.134Z,15.18
2023-09-06T07:14:53.216Z,15.13
2023-09-06T07:17:20.409Z,14.93
2023-09-06T07:19:51.468Z,14.85
2023-09-06T07:22:19.260Z,13.35
2023-09-06T07:24:46.528Z,13.40
2023-09-06T07:27:13.710Z,12.50
2023-09-06T07:29:40.826Z,11.65
2023-09-06T07:32:08.052Z,12.85
2023-09-06T07:34:35.206Z,11.43
2023-09-06T07:37:02.197Z,11.65
2023-09-06T07:39:29.648Z,11.30
2023-09-06T07:41:57.534Z,10.70
2023-09-06T07:44:24.631Z,11.95
2023-09-06T07:46:52.145Z,10.85
2023-09-06T07:49:20.137Z,9.90
2023-09-06T07:51:47.414Z,10.07
2023-09-06T07:54:14.521Z,9.65
2023-09-06T07:56:41.704Z,9.25
2023-09-06T07:59:13.568Z,9.30
2023-09-06T08:01:41.102Z,8.45
2023-09-06T08:04:10.606Z,9.15
2023-09-06T08:06:37.852Z,9.65
2023-09-06T08:09:05.339Z,9.50
2023-09-06T08:11:32.349Z,8.38
2023-09-06T08:13:59.616Z,8.35
2023-09-06T08:16:26.770Z,8.77
2023-09-06T08:18:54.897Z,7.28
2023-09-06T08:21:22.671Z,6.93
2023-09-06T08:23:50.047Z,6.28
2023-09-06T08:26:37.661Z,5.60
2023-09-06T08:29:23.394Z,6.18
2023-09-06T08:32:09.733Z,5.45
2023-09-06T08:34:55.755Z,5.63
2023-09-06T08:37:41.780Z,5.68
2023-09-06T08:40:27.514Z,5.50
2023-09-06T08:43:15.998Z,5.00
2023-09-06T08:46:20.104Z,4.70
2023-09-06T08:49:06.242Z,4.53
2023-09-06T08:51:52.378Z,4.70
2023-09-06T08:54:38.672Z,4.75
2023-09-06T08:57:27.636Z,5.03
2023-09-06T09:00:15.251Z,4.90
2023-09-06T09:03:01.153Z,4.45
2023-09-06T09:05:46.765Z,4.32
2023-09-06T09:08:32.515Z,4.22
2023-09-06T09:11:22.797Z,4.43
2023-09-06T09:14:08.354Z,4.13
2023-09-06T09:16:57.408Z,4.15
2023-09-06T09:19:43.421Z,4.18
2023-09-06T09:22:31.645Z,4.28
2023-09-06T09:25:00.811Z,3.58
2023-09-06T09:27:28.905Z,3.70
2023-09-06T09:29:58.082Z,3.70
2023-09-06T09:32:26.397Z,3.67
2023-09-06T09:34:54.063Z,4.10
2023-09-06T09:37:22.282Z,3.30
2023-09-06T09:39:49.349Z,3.50
2023-09-06T09:42:18.048Z,3.03
2023-09-06T09:45:00.486Z,3.20
2023-09-06T09:50:02.447Z,3.47
2023-09-06T09:52:31.526Z,3.90
2023-09-06T09:55:00.856Z,3.50
2023-09-06T09:57:27.971Z,3.38
2023-09-06T09:59:56.401Z,3.40
2023-09-06T10:02:35.171Z,3.28
2023-09-06T10:05:10.131Z,3.28
2023-09-06T10:07:49.138Z,3.13
2023-09-06T10:10:19.053Z,3.25
2023-09-06T10:12:49.541Z,3.55
2023-09-06T10:15:16.868Z,3.22
2023-09-06T10:17:43.998Z,3.20
2023-09-06T10:20:14.063Z,3.33
2023-09-06T10:22:47.679Z,3.30
2023-09-06T10:25:16.879Z,3.20
2023-09-06T10:27:51.630Z,3.15
2023-09-06T10:30:51.885Z,3.80
2023-09-06T10:33:43.515Z,3.10
2023-09-06T10:36:13.810Z,3.60
2023-09-06T10:38:56.884Z,3.25
2023-09-06T10:41:25.085Z,3.15
2023-09-06T10:44:02.993Z,2.83
2023-09-06T10:46:34.829Z,3.10
2023-09-06T10:49:22.225Z,3.15
2023-09-06T10:52:05.292Z,3.15
2023-09-06T10:54:40.798Z,3.50
2023-09-06T10:57:13.317Z,3.20
2023-09-06T10:59:43.979Z,3.78
2023-09-06T11:02:18.377Z,3.60
2023-09-06T11:04:46.865Z,3.10
2023-09-06T11:07:14.323Z,3.53
2023-09-06T11:09:51.830Z,3.42
2023-09-06T11:12:19.128Z,3.47
2023-09-06T11:14:54.982Z,3.60
2023-09-06T11:17:25.304Z,3.25
2023-09-06T11:19:52.317Z,3.75
2023-09-06T11:22:21.896Z,3.47
2023-09-06T11:24:49.979Z,3.83
2023-09-06T11:27:23.641Z,3.40
2023-09-06T11:29:59.026Z,3.20
2023-09-06T11:32:27.846Z,3.30
2023-09-06T11:35:15.894Z,3.30
2023-09-06T11:38:03.652Z,3.40
2023-09-06T11:40:49.457Z,3.22
2023-09-06T11:43:35.163Z,3.25
2023-09-06T11:46:22.589Z,3.70
2023-09-06T11:49:08.191Z,3.30
2023-09-06T11:51:55.469Z,3.20
2023-09-06T11:54:41.115Z,3.35
2023-09-06T11:57:31.954Z,3.25
2023-09-06T12:00:29.486Z,3.53
2023-09-06T12:03:17.547Z,3.15
2023-09-06T12:06:04.657Z,3.50
2023-09-06T12:08:52.095Z,3.20
2023-09-06T12:11:38.566Z,3.42
2023-09-06T12:14:24.199Z,3.03
2023-09-06T12:17:09.675Z,3.05
2023-09-06T12:20:00.147Z,2.65
2023-09-06T12:22:47.494Z,2.83
2023-09-06T12:25:33.082Z,3.58
2023-09-06T12:28:18.500Z,3.28
2023-09-06T12:30:46.528Z,3.03
2023-09-06T12:33:15.751Z,2.97
2023-09-06T12:35:42.962Z,3.10
2023-09-06T12:38:09.953Z,3.17
2023-09-06T12:40:56.132Z,2.95
2023-09-06T12:43:41.715Z,3.42
2023-09-06T12:46:27.351Z,3.00
2023-09-06T12:49:13.689Z,3.15
2023-09-06T12:51:59.409Z,2.88
2023-09-06T12:54:44.579Z,2.75
2023-09-06T12:57:30.085Z,3.28
2023-09-06T13:00:16.339Z,3.20
2023-09-06T13:03:02.736Z,3.20
2023-09-06T13:05:50.375Z,2.70
2023-09-06T13:08:19.484Z,2.90
2023-09-06T13:10:48.121Z,2.42
2023-09-06T13:13:15.148Z,2.42
2023-09-06T13:15:42.490Z,2.65
2023-09-06T13:18:11.772Z,2.60
2023-09-06T13:20:39.317Z,2.55
2023-09-06T13:23:06.186Z,2.33
2023-09-06T13:25:36.964Z,2.40
2023-09-06T13:28:06.379Z,2.90
2023-09-06T13:30:33.832Z,2.80
2023-09-06T13:33:01.409Z,2.67
2023-09-06T13:35:28.808Z,2.63
2023-09-06T13:37:57.169Z,2.47
2023-09-06T13:40:25.407Z,2.58
2023-09-06T13:42:52.564Z,2.30
2023-09-06T13:45:19.885Z,2.63
2023-09-06T13:47:47.237Z,3.25
2023-09-06T13:50:14.474Z,2.50
2023-09-06T13:52:41.718Z,2.45
2023-09-06T13:55:09.371Z,2.30
2023-09-06T13:57:36.418Z,2.35
2023-09-06T14:00:06.801Z,2.15
2023-09-06T14:02:36.430Z,2.72
2023-09-06T14:05:05.014Z,2.10
2023-09-06T14:07:32.386Z,2.00
2023-09-06T14:10:00.711Z,2.45
2023-09-06T14:12:28.161Z,2.30
2023-09-06T14:15:00.660Z,2.28
2023-09-06T14:17:27.753Z,2.08
2023-09-06T14:19:54.954Z,2.13
2023-09-06T14:22:22.011Z,2.30
2023-09-06T14:24:49.313Z,2.20
2023-09-06T14:27:17.870Z,2.28
2023-09-06T14:29:44.896Z,2.67
2023-09-06T14:32:13.164Z,2.38
2023-09-06T14:34:41.321Z,2.65
2023-09-06T14:37:08.509Z,2.75
2023-09-06T14:39:35.819Z,3.10
2023-09-06T14:42:03.098Z,2.67
2023-09-06T14:44:31.125Z,3.10
2023-09-06T14:47:01.344Z,2.63
2023-09-06T14:49:30.305Z,3.05
2023-09-06T14:52:02.529Z,2.50
2023-09-06T14:54:30.152Z,2.97
2023-09-06T14:56:59.325Z,2.83
2023-09-06T14:59:27.580Z,2.75
2023-09-06T15:01:54.880Z,2.78
2023-09-06T15:04:22.498Z,2.45
2023-09-06T15:06:59.695Z,2.72
2023-09-06T15:09:27.474Z,2.65
2023-09-06T15:11:55.436Z,2.92
2023-09-06T15:14:22.572Z,2.58
2023-09-06T15:16:49.751Z,2.60
2023-09-06T15:19:16.837Z,2.90
2023-09-06T15:21:44.583Z,2.58
2023-09-06T15:24:11.740Z,3.13
2023-09-06T15:26:38.880Z,2.40
2023-09-06T15:29:06.671Z,2.75
2023-09-06T15:31:33.869Z,3.15
2023-09-06T15:34:01.065Z,2.42
2023-09-06T15:36:31.641Z,2.85
2023-09-06T15:38:58.989Z,2.50
2023-09-06T15:41:28.093Z,2.38
2023-09-06T15:43:55.199Z,2.90
2023-09-06T15:46:22.560Z,2.80
2023-09-06T15:48:49.680Z,3.05
2023-09-06T15:51:16.933Z,3.80
2023-09-06T15:53:44.241Z,3.20
2023-09-06T15:56:11.768Z,2.90
2023-09-06T15:58:38.893Z,2.67
2023-09-06T16:01:07.071Z,3.05
2023-09-06T16:03:34.430Z,3.30
2023-09-06T16:06:02.032Z,2.38
2023-09-06T16:08:29.623Z,2.53
2023-09-06T16:11:01.048Z,2.40
2023-09-06T16:13:28.054Z,2.20
2023-09-06T16:15:55.166Z,2.60
2023-09-06T16:18:22.261Z,2.30
2023-09-06T16:20:49.408Z,2.58
2023-09-06T16:23:16.558Z,2.53
2023-09-06T16:25:43.767Z,2.85
2023-09-06T16:28:10.868Z,2.35
2023-09-06T16:30:40.155Z,2.75
2023-09-06T16:33:07.622Z,2.55
2023-09-06T16:35:37.056Z,2.60
2023-09-06T16:38:07.829Z,2.55
2023-09-06T16:40:35.649Z,2.50
2023-09-06T16:43:03.112Z,2.58
2023-09-06T16:45:30.352Z,2.92
2023-09-06T16:47:57.491Z,2.80
2023-09-06T16:50:24.861Z,2.70
2023-09-06T16:52:52.018Z,2.80
2023-09-06T16:55:19.266Z,2.83
2023-09-06T16:57:46.595Z,2.70
2023-09-06T17:00:14.628Z,2.95
2023-09-06T17:02:41.749Z,3.33
2023-09-06T17:05:10.203Z,3.05
2023-09-06T17:07:39.185Z,3.67
2023-09-06T17:10:09.669Z,3.30
2023-09-06T17:12:37.484Z,3.17
2023-09-06T17:15:20.131Z,3.47
2023-09-06T17:17:49.454Z,3.30
2023-09-06T17:20:18.918Z,3.33
2023-09-06T17:22:46.768Z,3.65
2023-09-06T17:25:14.467Z,3.17
2023-09-06T17:27:43.772Z,3.25
2023-09-06T17:30:22.253Z,3.00
2023-09-06T17:33:15.206Z,3.45
2023-09-06T17:35:46.639Z,3.05
2023-09-06T17:38:16.567Z,3.53
2023-09-06T17:40:48.947Z,3.13
2023-09-06T17:43:16.922Z,3.75
2023-09-06T17:45:47.198Z,3.17
2023-09-06T17:48:17.115Z,3.63
2023-09-06T17:50:51.016Z,3.42
2023-09-06T17:53:26.636Z,3.42
2023-09-06T17:56:09.083Z,3.95
2023-09-06T17:58:40.083Z,3.72
2023-09-06T18:01:10.064Z,3.40
2023-09-06T18:03:41.969Z,3.55
2023-09-06T18:06:15.027Z,3.40
2023-09-06T18:08:44.405Z,3.80
2023-09-06T18:11:13.180Z,3.80
2023-09-06T18:13:42.446Z,3.92
2023-09-06T18:16:14.216Z,3.55
2023-09-06T18:18:42.757Z,3.83
2023-09-06T18:21:12.452Z,3.75
2023-09-06T18:23:40.991Z,3.90
2023-09-06T18:26:09.352Z,4.03
2023-09-06T18:28:37.041Z,4.22
2023-09-06T18:31:04.811Z,4.22
2023-09-06T18:33:32.490Z,3.53
2023-09-06T18:36:00.757Z,4.00
2023-09-06T18:38:28.577Z,4.30
2023-09-06T18:40:57.557Z,4.10
2023-09-06T18:43:25.018Z,4.45
2023-09-06T18:45:52.471Z,3.53
2023-09-06T18:48:23.783Z,4.32
2023-09-06T18:50:52.899Z,4.07
2023-09-06T18:53:21.700Z,4.28
2023-09-06T18:55:49.110Z,4.20
2023-09-06T18:58:25.246Z,4.20
2023-09-06T19:00:52.711Z,4.20
2023-09-06T19:03:21.062Z,3.92
2023-09-06T19:05:48.790Z,3.90
2023-09-06T19:08:26.117Z,4.43
2023-09-06T19:10:53.446Z,4.50
2023-09-06T19:13:21.388Z,4.68
2023-09-06T19:15:50.257Z,4.30
2023-09-06T19:18:19.734Z,4.43
2023-09-06T19:20:47.187Z,4.40
2023-09-06T19:23:18.611Z,4.35
2023-09-06T19:25:53.510Z,3.85
2023-09-06T19:28:25.120Z,4.00
2023-09-06T19:30:54.918Z,3.30
2023-09-06T19:33:22.265Z,3.92
2023-09-06T19:35:49.908Z,4.25
2023-09-06T19:38:21.348Z,4.20
2023-09-06T19:40:51.216Z,4.25
2023-09-06T19:43:20.303Z,4.47
2023-09-06T19:45:53.383Z,4.43
2023-09-06T19:48:20.919Z,4.20
2023-09-06T19:50:50.095Z,4.07
2023-09-06T19:53:17.789Z,4.30
2023-09-06T19:55:45.242Z,4.47
2023-09-06T19:58:12.653Z,4.47
2023-09-06T20:00:40.245Z,4.32
2023-09-06T20:03:07.909Z,4.50
2023-09-06T20:05:37.051Z,4.35
2023-09-06T20:08:04.486Z,4.38
2023-09-06T20:10:31.593Z,3.85
2023-09-06T20:12:58.878Z,4.85
2023-09-06T20:15:26.294Z,4.53
2023-09-06T20:17:58.905Z,4.70
2023-09-06T20:20:26.291Z,4.20
2023-09-06T20:22:53.596Z,4.90
2023-09-06T20:25:21.279Z,4.30
2023-09-06T20:27:48.817Z,4.10
2023-09-06T20:30:16.404Z,4.45
2023-09-06T20:32:44.341Z,4.78
2023-09-06T20:35:11.597Z,4.75
2023-09-06T20:37:39.896Z,4.43
2023-09-06T20:40:08.021Z,4.50
2023-09-06T20:42:36.104Z,5.20
2023-09-06T20:45:03.847Z,4.68
2023-09-06T20:47:31.697Z,4.53
2023-09-06T20:49:59.687Z,4.38
2023-09-06T20:52:27.571Z,4.43
2023-09-06T20:54:57.704Z,4.35
2023-09-06T20:57:25.134Z,4.70
2023-09-06T20:59:52.631Z,4.07
2023-09-06T21:02:20.060Z,4.50
2023-09-06T21:04:47.578Z,4.40
2023-09-06T21:07:15.198Z,4.68
2023-09-06T21:09:42.728Z,4.65
2023-09-06T21:12:10.400Z,4.70
2023-09-06T21:14:38.352Z,4.13
2023-09-06T21:17:05.688Z,4.00
2023-09-06T21:19:33.207Z,4.45
2023-09-06T21:22:00.501Z,4.40
2023-09-06T21:24:30.665Z,4.55
2023-09-06T21:26:58.640Z,4.10
2023-09-06T21:29:29.088Z,3.75
2023-09-06T21:31:57.660Z,3.78
2023-09-06T21:34:25.329Z,4.10
2023-09-06T21:36:52.830Z,4.28
2023-09-06T21:39:20.400Z,4.00
2023-09-06T21:41:48.540Z,4.47
2023-09-06T21:44:16.317Z,4.30
2023-09-06T21:46:43.759Z,4.05
2023-09-06T21:49:11.100Z,4.30
2023-09-06T21:51:38.707Z,4.20
2023-09-06T21:54:06.086Z,4.60
2023-09-06T21:56:33.684Z,3.95
2023-09-06T21:59:00.929Z,3.63
2023-09-06T22:01:28.286Z,4.28
2023-09-06T22:03:55.830Z,4.07
2023-09-06T22:06:23.326Z,4.40
2023-09-06T22:08:50.907Z,4.50
2023-09-06T22:11:18.354Z,3.83
2023-09-06T22:13:45.984Z,3.80
2023-09-06T22:16:13.359Z,4.03
2023-09-06T22:18:40.821Z,4.05
2023-09-06T22:21:08.480Z,4.47
2023-09-06T22:23:35.765Z,4.65
2023-09-06T22:26:03.403Z,4.65
2023-09-06T22:28:33.325Z,4.50
2023-09-06T22:31:01.325Z,4.38
2023-09-06T22:33:28.957Z,4.53
2023-09-06T22:35:56.448Z,4.10
2023-09-06T22:38:23.733Z,4.10
2023-09-06T22:40:51.300Z,3.90
2023-09-06T22:43:19.230Z,4.10
2023-09-06T22:45:50.746Z,4.15
2023-09-06T22:48:18.408Z,4.40
2023-09-06T22:50:46.912Z,4.38
2023-09-06T22:53:14.933Z,4.45
2023-09-06T22:55:43.482Z,4.30
2023-09-06T22:58:10.813Z,4.30
2023-09-06T23:00:38.268Z,4.32
2023-09-06T23:03:06.004Z,5.18
2023-09-06T23:05:33.665Z,4.40
2023-09-06T23:08:01.503Z,4.43
2023-09-06T23:10:29.090Z,4.05
2023-09-06T23:12:57.351Z,4.43
2023-09-06T23:15:25.167Z,4.85
2023-09-06T23:17:54.015Z,4.32
2023-09-06T23:20:29.872Z,4.20
2023-09-06T23:22:59.768Z,4.22
2023-09-06T23:25:36.997Z,4.35
2023-09-06T23:28:16.547Z,4.13
2023-09-06T23:30:52.152Z,4.47
2023-09-06T23:33:30.265Z,5.13
2023-09-06T23:35:57.798Z,4.68
2023-09-06T23:38:25.688Z,4.93
2023-09-06T23:40:54.690Z,4.07
2023-09-06T23:43:21.950Z,4.72
2023-09-06T23:45:51.152Z,4.40
2023-09-06T23:48:18.870Z,4.35
2023-09-06T23:50:46.965Z,4.30
2023-09-06T23:53:14.490Z,4.45
2023-09-06T23:55:41.665Z,4.53
2023-09-06T23:58:10.226Z,4.53
